Sacramento, California
Current Conditions -  °F | °C
As of 11:05 PM on Sunday 21 Dec 2014 (Local Time) from KSAC Reporting Station
Haze Haze  
Wind Chill: 57°   Ceiling: 400
Heat Index: 57°   Visibility: 6mi
Dew Point: 55°   Wind: 6mph
Humidity: 94%   Direction: 340°NNW
Pressure: 30.27"   Gusts: NA
Location:  38.58°N, 121.49°W
Report Text: KSAC 220705Z AUTO 34005KT 6SM BR BKN004 14/13 A3027 RMK AO2
Loading
Personal Weather Stations






























Interactive Weather Map New forecast layout! Learn more

10-Day Weather Forecast

Advertisements
Track Severe Weather on mobile